createdAt,value
2018-01-05T00:00:23.715Z,0
2018-01-05T00:01:34.950Z,0
2018-01-05T00:02:45.175Z,0
2018-01-05T00:03:55.358Z,0
2018-01-05T00:05:05.582Z,0
2018-01-05T00:06:15.775Z,0
2018-01-05T00:07:25.997Z,0
2018-01-05T00:08:36.231Z,0
2018-01-05T00:09:46.552Z,0
2018-01-05T00:10:56.755Z,0
2018-01-05T00:12:06.932Z,0
2018-01-05T00:13:17.158Z,0
2018-01-05T00:14:27.074Z,0
2018-01-05T00:15:37.208Z,0
2018-01-05T00:16:47.331Z,0
2018-01-05T00:17:57.456Z,0
2018-01-05T00:19:07.726Z,0
2018-01-05T00:20:17.951Z,0
2018-01-05T00:21:27.821Z,0
2018-01-05T00:22:38.018Z,0
2018-01-05T00:23:48.175Z,0
2018-01-05T00:24:58.398Z,0
2018-01-05T00:26:08.577Z,0
2018-01-05T00:27:18.781Z,0
2018-01-05T00:28:29.054Z,0
2018-01-05T00:29:39.288Z,0
2018-01-05T00:30:50.423Z,0
2018-01-05T00:32:00.569Z,0
2018-01-05T00:33:10.704Z,0
2018-01-05T00:34:20.832Z,0
2018-01-05T00:35:30.967Z,0
2018-01-05T00:36:40.765Z,0
2018-01-05T00:37:50.908Z,0
2018-01-05T00:39:00.798Z,0
2018-01-05T00:40:10.943Z,0
2018-01-05T00:41:21.096Z,0
2018-01-05T00:42:31.232Z,0
2018-01-05T00:43:41.397Z,0
2018-01-05T00:44:51.631Z,0
2018-01-05T00:46:01.831Z,0
2018-01-05T00:47:12.022Z,0
2018-01-05T00:48:21.899Z,0
2018-01-05T00:49:32.105Z,0
2018-01-05T00:50:42.266Z,0
2018-01-05T00:51:52.523Z,0
2018-01-05T00:53:02.760Z,0
2018-01-05T00:54:12.928Z,0
2018-01-05T00:55:23.377Z,0
2018-01-05T00:56:33.538Z,0
2018-01-05T00:57:43.707Z,0
2018-01-05T00:58:53.872Z,0
2018-01-05T01:00:04.010Z,0
2018-01-05T01:01:14.255Z,0
2018-01-05T01:02:24.507Z,0
2018-01-05T01:03:34.687Z,0
2018-01-05T01:04:44.864Z,0
2018-01-05T01:05:55.157Z,0
2018-01-05T01:07:05.035Z,0
2018-01-05T01:08:15.191Z,0
2018-01-05T01:09:25.374Z,0
2018-01-05T01:10:35.564Z,0
2018-01-05T01:11:45.501Z,0
2018-01-05T01:12:55.615Z,0
2018-01-05T01:14:05.788Z,0
2018-01-05T01:15:16.023Z,0
2018-01-05T01:16:26.205Z,0
2018-01-05T01:17:36.434Z,0
2018-01-05T01:18:46.601Z,0
2018-01-05T01:19:56.832Z,0
2018-01-05T01:21:07.110Z,0
2018-01-05T01:22:17.288Z,0
2018-01-05T01:23:27.513Z,0
2018-01-05T01:24:37.679Z,0
2018-01-05T01:25:48.173Z,0
2018-01-05T01:26:58.380Z,0
2018-01-05T01:28:08.504Z,0
2018-01-05T01:29:18.669Z,0
2018-01-05T01:30:28.809Z,0
2018-01-05T01:31:38.983Z,0
2018-01-05T01:32:48.884Z,0
2018-01-05T01:33:59.078Z,0
2018-01-05T01:35:09.252Z,0
2018-01-05T01:36:19.458Z,0
2018-01-05T01:37:29.627Z,0
2018-01-05T01:38:39.598Z,0
2018-01-05T01:39:49.709Z,0
2018-01-05T01:40:59.886Z,0
2018-01-05T01:42:10.158Z,0
2018-01-05T01:43:20.337Z,0
2018-01-05T01:44:30.180Z,0
2018-01-05T01:45:40.341Z,0
2018-01-05T01:46:50.477Z,0
2018-01-05T01:48:00.951Z,0
2018-01-05T01:49:11.085Z,0
2018-01-05T01:50:21.251Z,0
2018-01-05T01:51:31.389Z,0
2018-01-05T01:52:41.535Z,0
2018-01-05T01:53:51.761Z,0
2018-01-05T01:55:02.033Z,0
2018-01-05T01:56:12.209Z,0
2018-01-05T01:57:22.370Z,0
2018-01-05T01:58:32.480Z,0
2018-01-05T01:59:42.622Z,0
2018-01-05T02:00:52.732Z,0
2018-01-05T02:02:03.906Z,0
2018-01-05T02:03:14.134Z,0
2018-01-05T02:04:24.356Z,0
2018-01-05T02:05:34.542Z,0
2018-01-05T02:06:44.782Z,0
2018-01-05T02:07:55.118Z,0
2018-01-05T02:09:05.342Z,0
2018-01-05T02:10:15.541Z,0
2018-01-05T02:11:25.691Z,0
2018-01-05T02:12:35.878Z,0
2018-01-05T02:13:45.742Z,0
2018-01-05T02:14:55.852Z,0
2018-01-05T02:16:06.023Z,0
2018-01-05T02:17:16.209Z,0
2018-01-05T02:18:26.371Z,0
2018-01-05T02:19:36.509Z,0
2018-01-05T02:20:46.642Z,0
2018-01-05T02:21:56.756Z,0
2018-01-05T02:23:06.879Z,0
2018-01-05T02:24:17.086Z,0
2018-01-05T02:25:27.258Z,0
2018-01-05T02:26:37.120Z,0
2018-01-05T02:27:47.255Z,0
2018-01-05T02:28:57.110Z,0
2018-01-05T02:30:07.258Z,0
2018-01-05T02:31:17.514Z,0
2018-01-05T02:32:27.679Z,0
2018-01-05T02:33:37.896Z,0
2018-01-05T02:34:48.111Z,0
2018-01-05T02:35:58.426Z,0
2018-01-05T02:37:08.659Z,0
2018-01-05T02:38:18.824Z,0
2018-01-05T02:39:28.987Z,0
2018-01-05T02:40:39.313Z,0
2018-01-05T02:41:49.437Z,0
2018-01-05T02:42:59.682Z,0
2018-01-05T02:44:09.855Z,0
2018-01-05T02:45:19.994Z,0
2018-01-05T02:46:30.177Z,0
2018-01-05T02:47:40.331Z,0
2018-01-05T02:48:50.453Z,0
2018-01-05T02:50:00.319Z,0
2018-01-05T02:51:10.444Z,0
2018-01-05T02:52:20.590Z,0
2018-01-05T02:53:30.774Z,0
2018-01-05T02:54:40.922Z,0
2018-01-05T02:55:50.823Z,0
2018-01-05T02:57:00.968Z,0
2018-01-05T02:58:11.155Z,0
2018-01-05T02:59:21.321Z,0
2018-01-05T03:00:31.569Z,0
2018-01-05T03:01:41.852Z,0
2018-01-05T03:02:52.000Z,0
2018-01-05T03:04:02.251Z,0
2018-01-05T03:05:12.475Z,0
2018-01-05T03:06:22.616Z,0
2018-01-05T03:07:32.742Z,0
2018-01-05T03:08:42.894Z,0
2018-01-05T03:09:53.008Z,0
2018-01-05T03:11:03.153Z,0
2018-01-05T03:12:13.336Z,0
2018-01-05T03:13:23.480Z,0
2018-01-05T03:14:33.697Z,0
2018-01-05T03:15:43.824Z,0
2018-01-05T03:16:53.967Z,0
2018-01-05T03:18:04.099Z,0
2018-01-05T03:19:14.299Z,0
2018-01-05T03:20:24.427Z,0
2018-01-05T03:21:34.554Z,0
2018-01-05T03:22:44.704Z,0
2018-01-05T03:23:54.806Z,0
2018-01-05T03:25:04.976Z,0
2018-01-05T03:26:14.844Z,0
2018-01-05T03:27:24.426Z,0
2018-01-05T03:28:34.555Z,0
2018-01-05T03:29:44.793Z,0
2018-01-05T03:30:54.934Z,0
2018-01-05T03:32:05.140Z,0
2018-01-05T03:33:15.425Z,0
2018-01-05T03:34:25.642Z,0
2018-01-05T03:35:35.771Z,0
2018-01-05T03:36:45.931Z,0
2018-01-05T03:37:56.097Z,0
2018-01-05T03:39:05.975Z,0
2018-01-05T03:40:16.132Z,0
2018-01-05T03:41:26.330Z,0
2018-01-05T03:42:36.448Z,0
2018-01-05T03:43:46.545Z,0
2018-01-05T03:44:56.689Z,0
2018-01-05T03:46:06.621Z,0
2018-01-05T03:47:16.738Z,0
2018-01-05T03:48:26.869Z,0
2018-01-05T03:49:37.983Z,0
2018-01-05T03:50:48.117Z,0
2018-01-05T03:51:57.887Z,0
2018-01-05T03:53:08.165Z,0
2018-01-05T03:54:18.326Z,0
2018-01-05T03:55:28.537Z,0
2018-01-05T03:56:38.799Z,0
2018-01-05T03:57:48.748Z,0
2018-01-05T03:58:58.939Z,0
2018-01-05T04:00:09.104Z,0
2018-01-05T04:01:19.258Z,0
2018-01-05T04:02:29.505Z,0
2018-01-05T04:03:39.879Z,0
2018-01-05T04:04:49.995Z,0
2018-01-05T04:06:00.107Z,0
2018-01-05T04:07:10.241Z,0
2018-01-05T04:08:20.353Z,0
2018-01-05T04:09:30.483Z,0
2018-01-05T04:10:40.608Z,0
2018-01-05T04:11:50.755Z,0
2018-01-05T04:13:00.931Z,0
2018-01-05T04:14:11.150Z,0
2018-01-05T04:15:21.322Z,0
2018-01-05T04:16:31.234Z,0
2018-01-05T04:17:41.412Z,0
2018-01-05T04:18:51.569Z,0
2018-01-05T04:20:01.723Z,0
2018-01-05T04:21:12.001Z,0
2018-01-05T04:22:22.163Z,0
2018-01-05T04:23:32.325Z,0
2018-01-05T04:24:42.454Z,0
2018-01-05T04:25:52.583Z,0
2018-01-05T04:27:02.682Z,0
2018-01-05T04:28:12.927Z,0
2018-01-05T04:29:23.105Z,0
2018-01-05T04:30:33.315Z,0
2018-01-05T04:31:43.557Z,0
2018-01-05T04:32:53.691Z,0
2018-01-05T04:34:03.826Z,0
2018-01-05T04:35:13.940Z,0
2018-01-05T04:36:24.075Z,0
2018-01-05T04:37:34.238Z,0
2018-01-05T04:38:44.374Z,0
2018-01-05T04:39:54.560Z,0
2018-01-05T04:41:04.710Z,0
2018-01-05T04:42:14.840Z,0
2018-01-05T04:43:25.003Z,0
2018-01-05T04:44:35.153Z,0
2018-01-05T04:45:45.268Z,0
2018-01-05T04:46:55.434Z,0
2018-01-05T04:48:05.622Z,0
2018-01-05T04:49:15.792Z,0
2018-01-05T04:50:25.999Z,0
2018-01-05T04:51:36.182Z,0
2018-01-05T04:52:46.343Z,0
2018-01-05T04:53:56.456Z,0
2018-01-05T04:55:06.567Z,0
2018-01-05T04:56:16.701Z,0
2018-01-05T04:57:26.941Z,0
2018-01-05T04:58:37.100Z,0
2018-01-05T04:59:47.328Z,0
2018-01-05T05:00:57.612Z,0
2018-01-05T05:02:07.781Z,0
2018-01-05T05:03:17.941Z,0
2018-01-05T05:04:28.073Z,0
2018-01-05T05:05:38.220Z,0
2018-01-05T05:06:48.340Z,0
2018-01-05T05:07:58.522Z,0
2018-01-05T05:09:08.639Z,0
2018-01-05T05:10:18.919Z,0
2018-01-05T05:11:29.178Z,0
2018-01-05T05:12:39.348Z,0
2018-01-05T05:13:49.558Z,0
2018-01-05T05:14:59.708Z,0
2018-01-05T05:16:09.915Z,0
2018-01-05T05:17:20.070Z,0
2018-01-05T05:18:30.171Z,0
2018-01-05T05:19:40.285Z,0
2018-01-05T05:20:50.395Z,0
2018-01-05T05:22:00.574Z,0
2018-01-05T05:23:10.698Z,0
2018-01-05T05:24:20.806Z,0
2018-01-05T05:25:30.933Z,0
2018-01-05T05:26:40.721Z,0
2018-01-05T05:27:50.844Z,0
2018-01-05T05:29:00.944Z,0
2018-01-05T05:30:11.063Z,0
2018-01-05T05:31:21.202Z,0
2018-01-05T05:32:31.351Z,0
2018-01-05T05:33:41.523Z,0
2018-01-05T05:34:51.141Z,0
2018-01-05T05:36:00.900Z,0
2018-01-05T05:37:11.075Z,0
2018-01-05T05:38:21.305Z,0
2018-01-05T05:39:31.489Z,0
2018-01-05T05:40:41.372Z,0
2018-01-05T05:41:51.522Z,0
2018-01-05T05:43:01.409Z,0
2018-01-05T05:44:11.566Z,0
2018-01-05T05:45:21.727Z,0
2018-01-05T05:46:32.880Z,0
2018-01-05T05:47:43.074Z,0
2018-01-05T05:48:53.341Z,0
2018-01-05T05:50:03.475Z,0
2018-01-05T05:51:13.372Z,0
2018-01-05T05:52:23.588Z,0
2018-01-05T05:53:33.465Z,0
2018-01-05T05:54:43.575Z,0
2018-01-05T05:55:53.790Z,0
2018-01-05T05:57:03.921Z,0
2018-01-05T05:58:14.183Z,0
2018-01-05T05:59:24.356Z,0
2018-01-05T06:00:33.984Z,0
2018-01-05T06:01:45.353Z,0
2018-01-05T06:02:55.535Z,0
2018-01-05T06:04:05.673Z,0
2018-01-05T06:05:15.644Z,0
2018-01-05T06:06:25.812Z,0
2018-01-05T06:07:35.943Z,0
2018-01-05T06:08:46.122Z,0
2018-01-05T06:09:55.745Z,0
2018-01-05T06:11:05.674Z,0
2018-01-05T06:12:15.904Z,0
2018-01-05T06:13:26.031Z,0
2018-01-05T06:14:36.241Z,0
2018-01-05T06:15:46.453Z,0
2018-01-05T06:16:56.582Z,0
2018-01-05T06:18:06.732Z,0
2018-01-05T06:19:16.852Z,0
2018-01-05T06:20:26.996Z,0
2018-01-05T06:21:36.874Z,0
2018-01-05T06:22:46.996Z,0
2018-01-05T06:23:57.188Z,0
2018-01-05T06:25:07.407Z,0
2018-01-05T06:26:17.318Z,0
2018-01-05T06:27:27.438Z,0
2018-01-05T06:28:37.589Z,0
2018-01-05T06:29:47.746Z,0
2018-01-05T06:30:57.894Z,0
2018-01-05T06:32:08.082Z,0
2018-01-05T06:33:18.277Z,0
2018-01-05T06:34:28.428Z,0
2018-01-05T06:35:38.715Z,0
2018-01-05T06:36:48.905Z,0
2018-01-05T06:37:59.281Z,0
2018-01-05T06:39:09.640Z,0
2018-01-05T06:40:19.788Z,0
2018-01-05T06:41:29.945Z,0
2018-01-05T06:42:40.126Z,0
2018-01-05T06:43:50.540Z,0
2018-01-05T06:45:00.898Z,4
2018-01-05T06:46:12.896Z,0
2018-01-05T06:47:24.009Z,0
2018-01-05T06:48:34.367Z,4
2018-01-05T06:49:44.705Z,4
2018-01-05T06:50:54.807Z,8
2018-01-05T06:52:04.935Z,4
2018-01-05T06:53:15.090Z,8
2018-01-05T06:54:25.224Z,8
2018-01-05T06:55:35.583Z,12
2018-01-05T06:56:45.917Z,16
2018-01-05T06:57:56.036Z,12
2018-01-05T06:59:06.372Z,16
2018-01-05T07:00:16.524Z,20
2018-01-05T07:01:26.691Z,24
2018-01-05T07:02:36.825Z,28
2018-01-05T07:03:47.194Z,32
2018-01-05T07:04:57.557Z,36
2018-01-05T07:06:07.911Z,40
2018-01-05T07:07:18.247Z,40
2018-01-05T07:08:28.667Z,48
2018-01-05T07:09:39.249Z,52
2018-01-05T07:10:50.384Z,56
2018-01-05T07:12:00.723Z,64
2018-01-05T07:13:11.306Z,84
2018-01-05T07:14:21.529Z,104
2018-01-05T07:15:31.916Z,128
2018-01-05T07:16:42.031Z,144
2018-01-05T07:17:52.161Z,156
2018-01-05T07:19:02.348Z,172
2018-01-05T07:20:12.513Z,196
2018-01-05T07:21:22.686Z,212
2018-01-05T07:22:32.820Z,240
2018-01-05T07:23:43.026Z,272
2018-01-05T07:24:53.159Z,308
2018-01-05T07:26:03.349Z,352
2018-01-05T07:27:13.512Z,392
2018-01-05T07:28:23.659Z,420
2018-01-05T07:29:33.906Z,452
2018-01-05T07:30:44.044Z,500
2018-01-05T07:31:54.212Z,552
2018-01-05T07:33:04.163Z,608
2018-01-05T07:34:14.339Z,676
2018-01-05T07:35:24.552Z,712
2018-01-05T07:36:34.713Z,744
2018-01-05T07:37:44.994Z,776
2018-01-05T07:38:55.174Z,840
2018-01-05T07:40:05.406Z,924
2018-01-05T07:41:15.599Z,996
2018-01-05T07:42:25.514Z,1056
2018-01-05T07:43:35.646Z,1080
2018-01-05T07:44:45.505Z,1104
2018-01-05T07:45:55.657Z,1188
2018-01-05T07:47:05.839Z,1188
2018-01-05T07:48:16.050Z,1076
2018-01-05T07:49:26.324Z,1004
2018-01-05T07:50:36.487Z,940
2018-01-05T07:51:46.646Z,848
2018-01-05T07:52:56.928Z,764
2018-01-05T07:54:07.118Z,812
2018-01-05T07:55:17.272Z,840
2018-01-05T07:56:27.218Z,844
2018-01-05T07:57:37.354Z,832
2018-01-05T07:58:47.501Z,688
2018-01-05T07:59:57.719Z,624
2018-01-05T08:01:07.993Z,592
2018-01-05T08:02:18.149Z,648
2018-01-05T08:03:28.403Z,608
2018-01-05T08:04:38.566Z,640
2018-01-05T08:05:48.741Z,832
2018-01-05T08:06:58.866Z,1076
2018-01-05T08:08:09.025Z,1224
2018-01-05T08:09:19.188Z,1320
2018-01-05T08:10:29.151Z,1380
2018-01-05T08:11:39.345Z,1436
2018-01-05T08:12:49.562Z,1536
2018-01-05T08:13:59.778Z,1676
2018-01-05T08:15:09.950Z,1912
2018-01-05T08:16:20.072Z,2032
2018-01-05T08:17:30.207Z,2252
2018-01-05T08:18:40.330Z,2708
2018-01-05T08:19:50.209Z,3108
2018-01-05T08:21:00.326Z,3588
2018-01-05T08:22:10.468Z,3700
2018-01-05T08:23:20.701Z,3680
2018-01-05T08:24:30.988Z,3720
2018-01-05T08:25:41.179Z,3928
2018-01-05T08:26:51.090Z,4384
2018-01-05T08:28:01.278Z,4664
2018-01-05T08:29:11.163Z,4668
2018-01-05T08:30:21.307Z,4392
2018-01-05T08:31:31.508Z,4892
2018-01-05T08:32:41.657Z,5532
2018-01-05T08:33:51.806Z,5900
2018-01-05T08:35:01.937Z,5908
2018-01-05T08:36:12.117Z,6108
2018-01-05T08:37:22.124Z,5748
2018-01-05T08:38:32.263Z,4900
2018-01-05T08:39:42.422Z,4628
2018-01-05T08:40:52.571Z,4508
2018-01-05T08:42:02.729Z,4388
2018-01-05T08:43:12.974Z,4048
2018-01-05T08:44:22.888Z,4016
2018-01-05T08:45:33.051Z,4420
2018-01-05T08:46:42.659Z,4344
2018-01-05T08:47:52.889Z,3516
2018-01-05T08:49:03.031Z,3136
2018-01-05T08:50:12.925Z,3152
2018-01-05T08:51:23.107Z,3604
2018-01-05T08:52:33.323Z,4168
2018-01-05T08:53:43.300Z,4852
2018-01-05T08:54:53.422Z,5796
2018-01-05T08:56:03.479Z,6244
2018-01-05T08:57:13.652Z,5848
2018-01-05T08:58:23.755Z,5424
2018-01-05T08:59:34.166Z,5404
2018-01-05T09:00:44.369Z,5172
2018-01-05T09:01:54.566Z,5876
2018-01-05T09:03:04.751Z,6884
2018-01-05T09:04:15.005Z,7060
2018-01-05T09:05:25.155Z,6468
2018-01-05T09:06:35.310Z,6592
2018-01-05T09:07:45.435Z,6848
2018-01-05T09:08:55.605Z,7792
2018-01-05T09:10:05.785Z,7904
2018-01-05T09:11:16.107Z,7188
2018-01-05T09:12:26.078Z,7304
2018-01-05T09:13:36.387Z,8300
2018-01-05T09:14:46.629Z,8528
2018-01-05T09:15:56.770Z,8712
2018-01-05T09:17:07.021Z,8136
2018-01-05T09:18:17.176Z,7504
2018-01-05T09:19:27.567Z,7720
2018-01-05T09:20:37.731Z,7680
2018-01-05T09:21:47.653Z,7932
2018-01-05T09:22:57.797Z,7992
2018-01-05T09:24:07.964Z,7868
2018-01-05T09:25:17.861Z,7740
2018-01-05T09:26:27.970Z,8312
2018-01-05T09:27:38.136Z,9584
2018-01-05T09:28:48.300Z,10228
2018-01-05T09:29:58.466Z,7624
2018-01-05T09:31:08.680Z,4864
2018-01-05T09:32:18.874Z,3816
2018-01-05T09:33:29.243Z,3392
2018-01-05T09:34:39.429Z,3640
2018-01-05T09:35:49.628Z,3968
2018-01-05T09:36:59.836Z,3876
2018-01-05T09:38:10.028Z,4276
2018-01-05T09:39:20.256Z,4508
2018-01-05T09:40:30.394Z,4724
2018-01-05T09:41:40.306Z,4668
2018-01-05T09:42:50.464Z,4664
2018-01-05T09:44:02.574Z,5032
2018-01-05T09:45:12.491Z,4180
2018-01-05T09:46:22.272Z,4776
2018-01-05T09:47:32.404Z,5272
2018-01-05T09:48:42.577Z,5624
2018-01-05T09:49:52.097Z,5224
2018-01-05T09:51:02.372Z,5980
2018-01-05T09:52:12.524Z,7216
2018-01-05T09:53:22.729Z,8704
2018-01-05T09:54:32.863Z,9988
2018-01-05T09:55:42.988Z,9184
2018-01-05T09:56:53.130Z,9604
2018-01-05T09:58:03.294Z,9980
2018-01-05T09:59:13.438Z,9908
2018-01-05T10:00:23.575Z,11896
2018-01-05T10:01:34.672Z,11316
2018-01-05T10:02:44.796Z,10376
2018-01-05T10:03:54.939Z,10228
2018-01-05T10:05:04.828Z,9516
2018-01-05T10:06:14.999Z,8476
2018-01-05T10:07:25.147Z,8556
2018-01-05T10:08:35.298Z,9692
2018-01-05T10:09:45.458Z,12128
2018-01-05T10:10:55.815Z,17472
2018-01-05T10:12:06.035Z,24768
2018-01-05T10:13:16.252Z,24928
2018-01-05T10:14:26.436Z,27104
2018-01-05T10:15:36.586Z,24512
2018-01-05T10:16:46.480Z,25312
2018-01-05T10:17:57.579Z,27808
2018-01-05T10:19:07.861Z,29152
2018-01-05T10:20:18.015Z,29344
2018-01-05T10:21:28.355Z,26176
2018-01-05T10:22:38.493Z,26944
2018-01-05T10:23:48.718Z,25568
2018-01-05T10:24:58.859Z,23968
2018-01-05T10:26:09.107Z,23808
2018-01-05T10:27:19.423Z,18240
2018-01-05T10:28:29.657Z,23744
2018-01-05T10:29:39.883Z,23584
2018-01-05T10:30:50.032Z,29088
2018-01-05T10:32:00.218Z,29568
2018-01-05T10:33:10.389Z,26688
2018-01-05T10:34:20.592Z,31648
2018-01-05T10:35:30.776Z,32384
2018-01-05T10:36:40.919Z,35616
2018-01-05T10:37:50.833Z,32448
2018-01-05T10:39:00.992Z,35008
2018-01-05T10:40:11.266Z,33152
2018-01-05T10:41:21.160Z,31328
2018-01-05T10:42:31.329Z,32896
2018-01-05T10:43:41.236Z,29856
2018-01-05T10:44:51.382Z,27136
2018-01-05T10:46:01.292Z,31328
2018-01-05T10:47:11.467Z,29856
2018-01-05T10:48:21.628Z,31200
2018-01-05T10:49:31.419Z,32480
2018-01-05T10:50:41.629Z,36992
2018-01-05T10:51:51.779Z,37152
2018-01-05T10:53:01.910Z,36448
2018-01-05T10:54:12.118Z,38176
2018-01-05T10:55:22.266Z,37184
2018-01-05T10:56:32.537Z,35008
2018-01-05T10:57:42.675Z,33344
2018-01-05T10:58:52.854Z,33824
2018-01-05T11:00:03.027Z,32224
2018-01-05T11:01:13.321Z,29888
2018-01-05T11:02:23.464Z,29760
2018-01-05T11:03:33.605Z,28800
2018-01-05T11:04:43.765Z,29632
2018-01-05T11:05:53.915Z,30112
2018-01-05T11:07:04.128Z,30048
2018-01-05T11:08:14.273Z,27168
2018-01-05T11:09:24.460Z,26144
2018-01-05T11:10:34.709Z,13308
2018-01-05T11:11:44.862Z,33056
2018-01-05T11:12:55.072Z,32768
2018-01-05T11:14:05.282Z,29792
2018-01-05T11:15:15.536Z,27232
2018-01-05T11:16:25.821Z,26944
2018-01-05T11:17:36.000Z,29792
2018-01-05T11:18:46.209Z,31520
2018-01-05T11:19:56.350Z,22400
2018-01-05T11:21:06.579Z,23872
2018-01-05T11:22:16.800Z,28672
2018-01-05T11:23:27.013Z,26528
2018-01-05T11:24:37.321Z,28992
2018-01-05T11:25:47.457Z,25696
2018-01-05T11:26:57.496Z,27840
2018-01-05T11:28:07.652Z,8276
2018-01-05T11:29:17.805Z,7768
2018-01-05T11:30:27.775Z,7896
2018-01-05T11:31:38.026Z,7736
2018-01-05T11:32:47.996Z,25024
2018-01-05T11:33:58.176Z,26528
2018-01-05T11:35:07.979Z,20384
2018-01-05T11:36:18.124Z,20352
2018-01-05T11:37:28.295Z,20224
2018-01-05T11:38:38.525Z,7152
2018-01-05T11:39:48.652Z,7124
2018-01-05T11:40:58.924Z,9328
2018-01-05T11:42:09.264Z,12576
2018-01-05T11:43:19.404Z,12744
2018-01-05T11:44:29.554Z,16576
2018-01-05T11:45:39.745Z,13236
2018-01-05T11:46:49.902Z,11780
2018-01-05T11:48:00.060Z,7948
2018-01-05T11:49:10.224Z,7416
2018-01-05T11:50:20.344Z,7500
2018-01-05T11:51:30.496Z,7200
2018-01-05T11:52:40.697Z,7796
2018-01-05T11:53:50.923Z,8416
2018-01-05T11:55:01.085Z,7828
2018-01-05T11:56:10.993Z,9208
2018-01-05T11:57:21.161Z,10468
2018-01-05T11:58:31.343Z,13908
2018-01-05T11:59:41.536Z,15872
2018-01-05T12:00:51.680Z,12700
2018-01-05T12:02:01.835Z,12816
2018-01-05T12:03:12.031Z,16832
2018-01-05T12:04:22.482Z,15808
2018-01-05T12:05:32.664Z,13332
2018-01-05T12:06:42.836Z,11760
2018-01-05T12:07:53.011Z,13288
2018-01-05T12:09:03.272Z,14336
2018-01-05T12:10:13.494Z,11808
2018-01-05T12:11:23.661Z,8928
2018-01-05T12:12:33.790Z,9640
2018-01-05T12:13:43.916Z,11732
2018-01-05T12:14:54.060Z,14784
2018-01-05T12:16:04.218Z,12256
2018-01-05T12:17:14.096Z,9812
2018-01-05T12:18:24.225Z,8584
2018-01-05T12:19:34.359Z,6548
2018-01-05T12:20:44.527Z,7728
2018-01-05T12:21:54.395Z,7768
2018-01-05T12:23:04.459Z,7376
2018-01-05T12:24:15.612Z,7340
2018-01-05T12:25:25.946Z,6460
2018-01-05T12:26:36.194Z,5888
2018-01-05T12:27:46.431Z,5924
2018-01-05T12:28:56.659Z,6176
2018-01-05T12:30:06.814Z,6828
2018-01-05T12:31:17.007Z,7236
2018-01-05T12:32:27.246Z,7160
2018-01-05T12:33:37.505Z,7060
2018-01-05T12:34:47.720Z,6780
2018-01-05T12:35:57.933Z,6896
2018-01-05T12:37:08.186Z,7468
2018-01-05T12:38:18.399Z,7728
2018-01-05T12:39:28.589Z,7784
2018-01-05T12:40:38.550Z,7384
2018-01-05T12:41:48.717Z,7380
2018-01-05T12:42:58.954Z,7584
2018-01-05T12:44:08.869Z,7856
2018-01-05T12:45:19.048Z,8804
2018-01-05T12:46:29.221Z,9580
2018-01-05T12:47:39.369Z,9616
2018-01-05T12:48:49.507Z,10008
2018-01-05T12:49:59.718Z,9520
2018-01-05T12:51:09.944Z,8160
2018-01-05T12:52:20.116Z,7068
2018-01-05T12:53:30.271Z,6140
2018-01-05T12:54:40.505Z,5596
2018-01-05T12:55:50.734Z,5796
2018-01-05T12:57:00.927Z,6376
2018-01-05T12:58:11.108Z,6904
2018-01-05T12:59:21.307Z,7320
2018-01-05T13:00:31.564Z,7508
2018-01-05T13:01:41.907Z,7248
2018-01-05T13:02:52.165Z,6968
2018-01-05T13:04:02.432Z,7000
2018-01-05T13:05:12.663Z,7300
2018-01-05T13:06:22.832Z,7456
2018-01-05T13:07:32.986Z,6792
2018-01-05T13:08:43.148Z,6200
2018-01-05T13:09:53.351Z,6252
2018-01-05T13:11:03.561Z,6096
2018-01-05T13:12:13.842Z,5904
2018-01-05T13:13:24.081Z,5700
2018-01-05T13:14:34.320Z,5484
2018-01-05T13:15:44.541Z,5448
2018-01-05T13:16:54.711Z,5892
2018-01-05T13:18:04.929Z,6732
2018-01-05T13:19:15.114Z,7120
2018-01-05T13:20:25.327Z,7544
2018-01-05T13:21:35.524Z,6712
2018-01-05T13:22:45.584Z,5796
2018-01-05T13:23:55.809Z,5532
2018-01-05T13:25:05.728Z,5868
2018-01-05T13:26:15.935Z,6188
2018-01-05T13:27:26.090Z,6212
2018-01-05T13:28:36.232Z,6436
2018-01-05T13:29:46.189Z,6532
2018-01-05T13:30:56.472Z,6272
2018-01-05T13:32:06.599Z,6120
2018-01-05T13:33:16.907Z,6476
2018-01-05T13:34:27.114Z,6624
2018-01-05T13:35:37.269Z,6724
2018-01-05T13:36:47.449Z,6412
2018-01-05T13:37:57.610Z,5324
2018-01-05T13:39:07.804Z,4904
2018-01-05T13:40:17.705Z,4744
2018-01-05T13:41:27.941Z,4692
2018-01-05T13:42:38.135Z,4720
2018-01-05T13:43:48.339Z,4528
2018-01-05T13:44:58.502Z,4276
2018-01-05T13:46:08.655Z,3812
2018-01-05T13:47:18.816Z,3528
2018-01-05T13:48:28.956Z,3468
2018-01-05T13:49:39.116Z,3628
2018-01-05T13:50:49.272Z,3832
2018-01-05T13:51:59.148Z,3880
2018-01-05T13:53:09.072Z,4024
2018-01-05T13:54:19.323Z,4020
2018-01-05T13:55:29.113Z,4292
2018-01-05T13:56:39.342Z,4392
2018-01-05T13:57:49.535Z,4308
2018-01-05T13:58:59.773Z,4192
2018-01-05T14:00:10.081Z,4328
2018-01-05T14:01:20.374Z,4376
2018-01-05T14:02:30.550Z,4064
2018-01-05T14:03:40.742Z,3800
2018-01-05T14:04:50.910Z,3796
2018-01-05T14:06:01.082Z,3796
2018-01-05T14:07:11.331Z,3624
2018-01-05T14:08:21.126Z,3624
2018-01-05T14:09:31.299Z,3220
2018-01-05T14:10:41.228Z,2728
2018-01-05T14:11:51.353Z,2628
2018-01-05T14:13:01.491Z,2836
2018-01-05T14:14:11.745Z,3268
2018-01-05T14:15:21.943Z,3648
2018-01-05T14:16:32.198Z,3560
2018-01-05T14:17:42.448Z,3200
2018-01-05T14:18:52.589Z,2940
2018-01-05T14:20:02.811Z,2612
2018-01-05T14:21:13.004Z,2024
2018-01-05T14:22:23.250Z,1664
2018-01-05T14:23:33.635Z,1468
2018-01-05T14:24:43.809Z,1396
2018-01-05T14:25:53.978Z,1364
2018-01-05T14:27:04.178Z,1324
2018-01-05T14:28:14.356Z,1336
2018-01-05T14:29:24.639Z,1432
2018-01-05T14:30:34.857Z,1424
2018-01-05T14:31:45.044Z,1380
2018-01-05T14:32:54.935Z,1432
2018-01-05T14:34:05.100Z,1208
2018-01-05T14:35:15.310Z,936
2018-01-05T14:36:25.504Z,836
2018-01-05T14:37:35.663Z,776
2018-01-05T14:38:46.808Z,720
2018-01-05T14:39:56.981Z,688
2018-01-05T14:41:07.141Z,656
2018-01-05T14:42:17.379Z,616
2018-01-05T14:43:27.610Z,596
2018-01-05T14:44:38.055Z,604
2018-01-05T14:45:48.202Z,628
2018-01-05T14:46:59.334Z,632
2018-01-05T14:48:09.560Z,612
2018-01-05T14:49:19.829Z,580
2018-01-05T14:50:30.030Z,560
2018-01-05T14:51:40.163Z,540
2018-01-05T14:52:50.341Z,500
2018-01-05T14:54:00.502Z,480
2018-01-05T14:55:10.711Z,464
2018-01-05T14:56:20.881Z,448
2018-01-05T14:57:31.068Z,424
2018-01-05T14:58:41.196Z,404
2018-01-05T14:59:51.362Z,376
2018-01-05T15:01:01.257Z,364
2018-01-05T15:02:11.469Z,352
2018-01-05T15:03:21.438Z,344
2018-01-05T15:04:31.748Z,332
2018-01-05T15:05:41.648Z,328
2018-01-05T15:06:51.849Z,332
2018-01-05T15:08:01.988Z,328
2018-01-05T15:09:12.271Z,320
2018-01-05T15:10:22.537Z,304
2018-01-05T15:11:32.708Z,292
2018-01-05T15:12:42.929Z,272
2018-01-05T15:13:53.077Z,260
2018-01-05T15:15:03.287Z,240
2018-01-05T15:16:13.625Z,220
2018-01-05T15:17:23.811Z,204
2018-01-05T15:18:33.940Z,188
2018-01-05T15:19:44.190Z,172
2018-01-05T15:20:54.456Z,156
2018-01-05T15:22:04.675Z,140
2018-01-05T15:23:14.934Z,124
2018-01-05T15:24:25.161Z,112
2018-01-05T15:25:35.288Z,100
2018-01-05T15:26:45.481Z,88
2018-01-05T15:27:55.641Z,72
2018-01-05T15:29:05.812Z,64
2018-01-05T15:30:15.941Z,60
2018-01-05T15:31:26.128Z,48
2018-01-05T15:32:36.292Z,44
2018-01-05T15:33:46.480Z,36
2018-01-05T15:34:56.718Z,32
2018-01-05T15:36:06.913Z,28
2018-01-05T15:37:17.110Z,20
2018-01-05T15:38:27.282Z,20
2018-01-05T15:39:37.452Z,16
2018-01-05T15:40:47.637Z,12
2018-01-05T15:41:57.837Z,12
2018-01-05T15:43:08.067Z,8
2018-01-05T15:44:18.282Z,8
2018-01-05T15:45:28.264Z,8
2018-01-05T15:46:38.478Z,4
2018-01-05T15:47:48.625Z,4
2018-01-05T15:48:58.792Z,4
2018-01-05T15:50:08.973Z,4
2018-01-05T15:51:19.185Z,4
2018-01-05T15:52:29.479Z,0
2018-01-05T15:53:39.687Z,4
2018-01-05T15:54:49.836Z,4
2018-01-05T15:56:00.027Z,4
2018-01-05T15:57:10.234Z,0
2018-01-05T15:58:20.418Z,0
2018-01-05T15:59:30.754Z,0
2018-01-05T16:00:41.101Z,0
2018-01-05T16:01:50.928Z,0
2018-01-05T16:03:01.135Z,0
2018-01-05T16:04:11.325Z,0
2018-01-05T16:05:21.493Z,0
2018-01-05T16:06:31.635Z,0
2018-01-05T16:07:41.781Z,0
2018-01-05T16:08:52.043Z,0
2018-01-05T16:10:02.220Z,0
2018-01-05T16:11:13.364Z,0
2018-01-05T16:12:23.410Z,0
2018-01-05T16:13:33.598Z,0
2018-01-05T16:14:43.763Z,0
2018-01-05T16:15:53.964Z,0
2018-01-05T16:17:04.141Z,0
2018-01-05T16:18:14.310Z,0
2018-01-05T16:19:24.556Z,0
2018-01-05T16:20:34.783Z,0